Time;durP1;ratioP1;P1;durP2;ratioP2;P2;SDS_P1;SDS_P2;PMS_P1;PMS_P2;Temp;Humidity;BMP_temperature;BMP_pressure;BME280_temperature;BME280_humidity;BME280_pressure;Samples;Min_cycle;Max_cycle;Signal;HPM_P1;HPM_P2
2022/12/01 00:01:23;;;;;;;4.77;1.70;;;4.80;1.00;;;;;;5046167;28;20512;-73
2022/12/01 00:03:50;;;;;;;3.25;2.10;;;4.80;1.00;;;;;;5043045;28;20455;-74
2022/12/01 00:06:20;;;;;;;3.90;2.17;;;4.70;1.00;;;;;;5033807;28;21011;-73
2022/12/01 00:11:37;;;;;;;2.42;2.22;;;4.70;1.00;;;;;;5037323;28;20504;-73
2022/12/01 00:14:04;;;;;;;7.38;2.22;;;4.70;1.00;;;;;;5042690;28;20470;-73
2022/12/01 00:16:32;;;;;;;2.70;2.17;;;4.60;1.00;;;;;;5037690;28;20464;-74
2022/12/01 00:18:59;;;;;;;3.38;1.90;;;4.60;1.00;;;;;;5040066;28;20994;-73
2022/12/01 00:21:26;;;;;;;1.80;1.60;;;4.50;1.00;;;;;;5044067;28;20434;-74
2022/12/01 00:24:00;;;;;;;6.13;2.42;;;4.50;1.00;;;;;;5032141;28;20437;-74
2022/12/01 00:26:27;;;;;;;4.10;1.95;;;4.50;1.00;;;;;;5036842;28;21135;-73
2022/12/01 00:28:56;;;;;;;3.45;2.00;;;4.50;1.00;;;;;;5048917;28;20428;-73
2022/12/01 00:31:23;;;;;;;1.77;1.65;;;4.50;1.00;;;;;;5042514;28;20517;-73
2022/12/01 00:33:51;;;;;;;3.42;2.15;;;4.50;1.00;;;;;;5034667;28;20445;-73
2022/12/01 00:36:18;;;;;;;2.40;2.03;;;4.50;1.00;;;;;;5030112;28;20875;-73
2022/12/01 00:38:45;;;;;;;3.67;2.17;;;4.40;1.00;;;;;;5032215;28;20430;-73
2022/12/01 00:41:12;;;;;;;5.03;2.05;;;4.40;1.00;;;;;;5042409;28;21138;-72
2022/12/01 00:43:39;;;;;;;4.40;3.10;;;4.40;1.00;;;;;;5050162;28;20436;-72
2022/12/01 00:46:08;;;;;;;4.60;2.50;;;4.30;1.00;;;;;;5045297;28;20460;-74
2022/12/01 00:48:35;;;;;;;2.20;1.85;;;4.30;1.00;;;;;;5047265;28;20511;-74
2022/12/01 00:51:05;;;;;;;3.33;1.90;;;4.30;1.00;;;;;;5048716;28;20429;-73
2022/12/01 00:53:32;;;;;;;4.93;2.17;;;4.20;1.00;;;;;;5049060;28;20442;-74
2022/12/01 00:55:58;;;;;;;5.67;1.90;;;4.20;1.00;;;;;;5054126;28;20435;-74
2022/12/01 00:58:25;;;;;;;3.83;2.28;;;4.20;1.00;;;;;;5040809;28;20533;-74
2022/12/01 01:00:59;;;;;;;3.93;2.47;;;4.10;1.00;;;;;;5045372;28;20425;-74
2022/12/01 01:03:27;;;;;;;3.53;2.47;;;4.10;1.00;;;;;;5041485;28;20431;-72
2022/12/01 01:05:54;;;;;;;4.30;3.10;;;4.00;1.00;;;;;;5038386;28;20571;-72
2022/12/01 01:08:21;;;;;;;6.25;2.00;;;4.00;1.00;;;;;;5051286;28;20425;-72
2022/12/01 01:10:48;;;;;;;2.58;2.10;;;4.00;1.00;;;;;;5052058;28;20425;-72
2022/12/01 01:13:18;;;;;;;2.60;2.05;;;4.00;1.00;;;;;;5046231;28;20438;-72
2022/12/01 01:15:45;;;;;;;3.33;2.20;;;4.00;1.00;;;;;;5042591;28;20432;-72
2022/12/01 01:18:12;;;;;;;4.03;2.67;;;3.90;1.00;;;;;;5049306;28;20468;-72
2022/12/01 01:20:38;;;;;;;2.83;2.25;;;4.00;1.00;;;;;;5048010;28;20892;-72
2022/12/01 01:23:05;;;;;;;5.35;3.00;;;3.90;1.00;;;;;;5042782;28;20468;-72
2022/12/01 01:25:33;;;;;;;3.67;2.28;;;3.90;1.00;;;;;;5037006;28;20469;-73
2022/12/01 01:27:59;;;;;;;3.00;2.70;;;3.90;1.00;;;;;;5043301;28;20428;-72
2022/12/01 01:30:26;;;;;;;6.65;2.28;;;3.80;1.00;;;;;;5043031;28;20520;-73
2022/12/01 01:32:53;;;;;;;2.58;2.38;;;3.80;1.00;;;;;;5037428;28;20433;-73
2022/12/01 01:35:25;;;;;;;4.65;2.42;;;3.90;1.30;;;;;;5041865;28;20437;-73
2022/12/01 01:37:52;;;;;;;5.27;2.87;;;3.80;2.30;;;;;;5041768;28;20430;-73
2022/12/01 01:40:19;;;;;;;8.60;3.47;;;3.90;1.90;;;;;;5043152;28;20429;-73
2022/12/01 01:42:45;;;;;;;4.95;3.10;;;3.90;5.00;;;;;;5041444;28;20441;-72
2022/12/01 01:45:22;;;;;;;3.58;2.25;;;3.90;6.00;;;;;;5034744;28;20435;-72
2022/12/01 01:47:52;;;;;;;5.05;2.65;;;3.90;7.10;;;;;;5047327;28;20443;-72
2022/12/01 01:50:23;;;;;;;4.70;2.58;;;3.90;8.10;;;;;;5048303;28;20505;-72
2022/12/01 01:53:12;;;;;;;5.85;2.55;;;3.90;8.60;;;;;;5043515;28;20807;-73
2022/12/01 01:55:39;;;;;;;4.72;2.67;;;3.90;5.70;;;;;;5049434;28;20439;-73
2022/12/01 01:58:09;;;;;;;7.53;2.92;;;3.90;1.00;;;;;;5049215;28;20440;-72
2022/12/01 02:00:38;;;;;;;3.97;2.75;;;3.90;1.00;;;;;;5048709;28;20436;-72
2022/12/01 02:03:08;;;;;;;3.60;2.83;;;3.90;1.00;;;;;;5036226;28;20431;-72
2022/12/01 02:05:38;;;;;;;6.75;4.03;;;3.90;1.00;;;;;;5049181;28;20920;-73
2022/12/01 02:08:11;;;;;;;4.63;2.90;;;3.90;1.00;;;;;;5036664;28;20431;-73
2022/12/01 02:10:50;;;;;;;6.95;3.17;;;4.00;1.00;;;;;;5040993;28;20429;-73
2022/12/01 02:13:42;;;;;;;5.10;2.28;;;3.80;1.00;;;;;;5048719;28;20429;-73
2022/12/01 02:16:37;;;;;;;4.00;2.53;;;3.90;1.00;;;;;;5041548;28;20929;-73
2022/12/01 02:19:06;;;;;;;6.10;3.10;;;3.90;1.00;;;;;;5040558;28;20430;-73
2022/12/01 02:22:04;;;;;;;7.93;2.83;;;3.80;1.00;;;;;;5042978;28;20512;-73
2022/12/01 02:24:54;;;;;;;5.32;3.17;;;3.80;1.00;;;;;;5043956;28;20429;-73
2022/12/01 02:27:45;;;;;;;3.47;2.80;;;3.80;1.00;;;;;;5048635;28;20429;-74
2022/12/01 02:30:40;;;;;;;5.35;3.40;;;3.80;1.00;;;;;;5045958;28;20461;-74
2022/12/01 02:33:15;;;;;;;6.25;2.97;;;3.80;1.00;;;;;;5045270;28;20432;-73
2022/12/01 02:36:31;;;;;;;6.43;2.53;;;3.80;1.00;;;;;;5047829;28;20433;-73
2022/12/01 02:39:20;;;;;;;5.93;3.42;;;3.80;1.00;;;;;;5042805;28;20582;-73
2022/12/01 02:42:00;;;;;;;5.70;3.38;;;3.80;1.00;;;;;;5048159;28;21109;-73
2022/12/01 02:44:34;;;;;;;6.70;3.35;;;3.80;1.00;;;;;;5044844;28;20516;-73
2022/12/01 02:47:14;;;;;;;6.80;2.47;;;3.80;1.00;;;;;;5045282;28;21025;-73
2022/12/01 02:49:48;;;;;;;5.50;2.53;;;3.80;1.00;;;;;;5042729;28;20951;-74
2022/12/01 02:52:17;;;;;;;6.97;3.72;;;3.80;1.00;;;;;;5037956;28;21047;-74
2022/12/01 02:54:47;;;;;;;2.93;2.43;;;3.80;1.00;;;;;;5044337;28;20513;-74
2022/12/01 02:57:15;;;;;;;7.22;2.63;;;3.80;1.00;;;;;;5036397;28;20572;-74
2022/12/01 02:59:49;;;;;;;5.00;2.33;;;3.80;1.00;;;;;;5038509;28;20741;-73
2022/12/01 03:02:27;;;;;;;5.35;2.80;;;3.80;1.00;;;;;;5044371;28;21012;-74
2022/12/01 03:05:00;;;;;;;4.00;2.33;;;3.80;1.00;;;;;;5046547;28;20433;-74
2022/12/01 03:08:19;;;;;;;3.07;2.27;;;3.90;1.00;;;;;;5045807;28;20432;-74
2022/12/01 03:10:57;;;;;;;5.07;3.03;;;3.80;1.00;;;;;;4966329;28;21001;-75
2022/12/01 03:13:51;;;;;;;5.18;2.88;;;3.80;1.00;;;;;;4958741;28;20953;-74
2022/12/01 03:16:25;;;;;;;7.50;3.20;;;3.80;1.00;;;;;;4955121;28;20525;-74
2022/12/01 03:19:11;;;;;;;5.43;2.75;;;3.80;1.00;;;;;;4968737;28;20431;-74
2022/12/01 03:21:47;;;;;;;4.72;2.22;;;3.80;1.00;;;;;;4966991;28;20440;-75
2022/12/01 03:24:18;;;;;;;3.45;2.67;;;3.80;1.00;;;;;;4964813;28;20447;-75
2022/12/01 03:26:48;;;;;;;4.93;3.08;;;3.80;1.00;;;;;;4965670;28;20448;-75
2022/12/01 03:29:20;;;;;;;6.88;2.63;;;3.80;1.00;;;;;;4965227;28;20444;-75
2022/12/01 03:31:54;;;;;;;6.67;2.70;;;3.80;1.00;;;;;;4953991;28;20447;-75
2022/12/01 03:34:31;;;;;;;4.57;3.28;;;3.80;1.00;;;;;;4951070;28;20479;-75
2022/12/01 03:37:08;;;;;;;4.53;2.77;;;3.80;1.00;;;;;;4966437;28;20435;-75
2022/12/01 03:39:38;;;;;;;5.57;2.67;;;3.80;1.00;;;;;;4953175;28;20439;-75
2022/12/01 03:42:19;;;;;;;5.72;3.13;;;3.80;1.00;;;;;;4969517;28;20440;-75
2022/12/01 03:44:56;;;;;;;3.95;3.28;;;3.80;1.00;;;;;;4965174;28;20811;-76
2022/12/01 03:47:31;;;;;;;5.35;3.38;;;3.80;1.00;;;;;;5022306;28;20800;-74
2022/12/01 03:49:59;;;;;;;4.00;3.47;;;3.70;1.00;;;;;;5048317;28;20433;-75
2022/12/01 03:52:53;;;;;;;6.43;4.00;;;3.80;1.00;;;;;;5046051;28;20467;-76
2022/12/01 03:55:30;;;;;;;5.55;3.13;;;3.80;1.00;;;;;;5038899;28;20463;-75
2022/12/01 03:58:26;;;;;;;4.78;3.72;;;3.80;1.00;;;;;;5047995;28;20903;-74
2022/12/01 04:00:56;;;;;;;5.75;3.97;;;3.70;1.00;;;;;;5032313;28;20462;-74
2022/12/01 04:03:24;;;;;;;6.47;3.22;;;3.70;1.00;;;;;;5042016;28;20923;-74
2022/12/01 04:05:51;;;;;;;8.05;3.28;;;3.70;1.00;;;;;;5041571;28;20442;-73
2022/12/01 04:08:18;;;;;;;4.95;3.00;;;3.70;1.00;;;;;;5044524;28;20420;-73
2022/12/01 04:10:45;;;;;;;4.57;3.72;;;3.70;1.00;;;;;;5040485;28;20425;-74
2022/12/01 04:13:21;;;;;;;6.55;3.38;;;3.70;1.00;;;;;;5049090;28;20460;-73
2022/12/01 04:15:52;;;;;;;6.60;3.03;;;3.70;1.00;;;;;;5046937;28;20520;-74
2022/12/01 04:18:20;;;;;;;5.15;2.65;;;3.70;1.00;;;;;;5041258;28;20953;-74
2022/12/01 04:20:48;;;;;;;5.72;2.92;;;3.70;1.00;;;;;;5049991;28;20472;-74
2022/12/01 04:26:04;;;;;;;3.63;3.28;;;3.60;1.00;;;;;;5034651;28;20488;-74
2022/12/01 04:28:31;;;;;;;3.97;2.65;;;3.60;1.00;;;;;;5050307;28;20464;-74
2022/12/01 04:30:57;;;;;;;5.50;3.10;;;3.60;1.00;;;;;;5049953;28;20985;-75
2022/12/01 04:33:24;;;;;;;5.78;3.38;;;3.50;1.00;;;;;;5065625;28;20501;-75
2022/12/01 04:35:58;;;;;;;3.85;3.42;;;3.50;1.00;;;;;;5042592;28;20925;-75
2022/12/01 04:38:25;;;;;;;3.58;2.80;;;3.50;70.00;;;;;;5067062;28;20458;-76
2022/12/01 04:40:56;;;;;;;5.75;3.55;;;3.40;99.90;;;;;;5038130;28;20469;-76
2022/12/01 04:43:23;;;;;;;5.80;3.05;;;3.40;99.90;;;;;;5034021;28;20434;-76
2022/12/01 04:45:50;;;;;;;3.83;1.98;;;3.40;99.90;;;;;;5052458;28;20429;-76
2022/12/01 04:48:17;;;;;;;4.50;2.50;;;3.40;99.90;;;;;;5049719;28;21130;-76
2022/12/01 04:50:43;;;;;;;4.33;3.17;;;3.50;99.90;;;;;;5047010;28;20552;-76
2022/12/01 04:53:10;;;;;;;4.25;3.03;;;3.50;99.90;;;;;;5049792;28;20433;-76
2022/12/01 04:55:38;;;;;;;3.85;3.05;;;3.50;99.90;;;;;;5052365;28;20433;-76
2022/12/01 04:58:05;;;;;;;6.47;3.45;;;3.50;99.90;;;;;;5050168;28;20432;-76
2022/12/01 05:00:32;;;;;;;5.00;2.33;;;3.50;99.90;;;;;;5048987;28;20432;-76
2022/12/01 05:02:59;;;;;;;7.85;3.78;;;3.60;99.90;;;;;;5050940;28;20443;-76
2022/12/01 05:05:26;;;;;;;6.63;3.70;;;3.60;99.90;;;;;;5047342;28;20440;-76
2022/12/01 05:07:53;;;;;;;9.98;3.83;;;3.60;99.90;;;;;;5052995;28;20433;-76
2022/12/01 05:10:20;;;;;;;5.00;2.88;;;3.60;99.90;;;;;;5046224;28;20769;-76
2022/12/01 05:12:47;;;;;;;4.90;3.33;;;3.50;99.90;;;;;;5048017;28;20832;-76
2022/12/01 05:15:14;;;;;;;6.05;3.25;;;3.50;99.90;;;;;;5051116;28;20437;-76
2022/12/01 05:17:41;;;;;;;7.00;3.30;;;3.50;99.90;;;;;;5051419;28;20435;-76
2022/12/01 05:23:04;;;;;;;8.05;3.35;;;3.60;99.90;;;;;;5035805;28;20473;-76
2022/12/01 05:25:32;;;;;;;3.00;2.13;;;3.60;99.90;;;;;;5033112;28;20435;-76
2022/12/01 05:27:59;;;;;;;4.65;2.97;;;3.50;99.90;;;;;;5034541;28;20432;-76
2022/12/01 05:30:26;;;;;;;6.88;3.55;;;3.50;99.90;;;;;;5043192;28;20433;-76
2022/12/01 05:32:54;;;;;;;6.57;3.17;;;3.50;99.90;;;;;;5033197;28;20427;-76
2022/12/01 05:35:21;;;;;;;3.72;2.92;;;3.60;99.90;;;;;;5066854;28;20969;-76
2022/12/01 05:37:48;;;;;;;6.60;3.13;;;3.60;99.90;;;;;;5045038;28;20441;-76
2022/12/01 05:40:15;;;;;;;2.78;2.55;;;3.60;99.90;;;;;;5045035;28;20461;-76
2022/12/01 05:42:41;;;;;;;5.25;3.80;;;3.50;99.90;;;;;;5036821;28;20439;-76
2022/12/01 05:45:08;;;;;;;5.93;4.05;;;3.50;99.90;;;;;;5033307;28;20438;-76
2022/12/01 05:47:35;;;;;;;2.55;2.33;;;3.50;99.90;;;;;;5032172;28;20434;-76
2022/12/01 05:50:02;;;;;;;4.63;3.35;;;3.60;99.90;;;;;;5037769;28;20435;-77
2022/12/01 05:52:35;;;;;;;10.48;3.28;;;3.50;99.90;;;;;;5036966;28;20793;-76
2022/12/01 05:55:05;;;;;;;5.40;3.60;;;3.50;99.90;;;;;;5065023;28;20439;-76
2022/12/01 05:57:32;;;;;;;4.55;2.47;;;3.50;99.90;;;;;;5047921;28;20526;-77
2022/12/01 05:59:59;;;;;;;7.40;3.13;;;3.60;99.90;;;;;;5052608;28;20440;-77
2022/12/01 06:02:26;;;;;;;5.00;2.70;;;3.50;99.90;;;;;;5045307;28;20432;-77
2022/12/01 06:04:53;;;;;;;3.25;2.85;;;3.50;99.90;;;;;;5046395;28;20443;-76
2022/12/01 06:07:22;;;;;;;6.47;3.00;;;3.60;99.90;;;;;;5053032;28;20429;-77
2022/12/01 06:09:49;;;;;;;5.63;2.78;;;3.50;99.90;;;;;;5050673;28;20811;-75
2022/12/01 06:12:16;;;;;;;4.45;3.10;;;3.50;99.90;;;;;;5052439;28;20896;-75
2022/12/01 06:14:43;;;;;;;4.10;3.13;;;3.50;99.90;;;;;;5052497;28;20433;-75
2022/12/01 06:17:10;;;;;;;3.10;2.80;;;3.50;99.90;;;;;;5052803;28;20429;-75
2022/12/01 06:19:38;;;;;;;7.20;3.58;;;3.50;99.90;;;;;;5052755;28;20432;-75
2022/12/01 06:22:05;;;;;;;4.00;2.57;;;3.50;99.90;;;;;;5049930;28;20429;-75
2022/12/01 06:24:31;;;;;;;4.70;3.42;;;3.40;99.90;;;;;;5051013;28;20974;-76
2022/12/01 06:27:01;;;;;;;5.63;3.47;;;3.40;99.90;;;;;;5051496;28;20436;-76
2022/12/01 06:29:31;;;;;;;3.30;2.78;;;3.40;99.90;;;;;;5048833;28;21547;-77
2022/12/01 06:31:57;;;;;;;3.50;2.22;;;3.40;99.90;;;;;;5050666;28;20429;-76
2022/12/01 06:34:24;;;;;;;5.68;2.15;;;3.40;99.90;;;;;;5049221;28;20520;-76
2022/12/01 06:36:51;;;;;;;5.97;2.40;;;3.40;99.90;;;;;;5051707;28;20429;-76
2022/12/01 06:39:29;;;;;;;5.82;3.00;;;3.40;99.90;;;;;;5040541;28;20433;-76
2022/12/01 06:41:56;;;;;;;4.82;2.20;;;3.40;99.90;;;;;;5050798;28;20417;-76
2022/12/01 06:44:22;;;;;;;3.90;2.63;;;3.40;99.90;;;;;;5041918;28;20438;-76
2022/12/01 06:46:52;;;;;;;4.35;3.03;;;3.40;99.90;;;;;;5040690;28;20433;-76
2022/12/01 06:49:19;;;;;;;6.10;2.63;;;3.40;99.90;;;;;;5050838;28;20425;-76
2022/12/01 06:51:46;;;;;;;3.75;2.13;;;3.40;99.90;;;;;;5045573;28;20431;-76
2022/12/01 06:54:13;;;;;;;7.67;2.43;;;3.40;99.90;;;;;;5034529;28;20465;-76
2022/12/01 06:56:41;;;;;;;4.95;2.53;;;3.30;99.90;;;;;;5044430;28;20431;-76
2022/12/01 06:59:09;;;;;;;4.70;2.20;;;3.30;99.90;;;;;;5037648;28;20458;-76
2022/12/01 07:01:35;;;;;;;5.05;2.47;;;3.30;99.90;;;;;;5071634;28;20434;-76
2022/12/01 07:04:02;;;;;;;2.58;2.30;;;3.30;99.90;;;;;;5050379;28;20917;-77
2022/12/01 07:06:30;;;;;;;4.50;3.13;;;3.40;99.90;;;;;;5049768;28;20441;-76
2022/12/01 07:08:57;;;;;;;4.07;2.67;;;3.30;99.90;;;;;;5051273;28;20425;-76
2022/12/01 07:11:24;;;;;;;4.03;2.70;;;3.30;99.90;;;;;;5051413;28;20429;-76
2022/12/01 07:13:54;;;;;;;4.88;2.75;;;3.40;99.90;;;;;;5049830;28;21064;-76
2022/12/01 07:16:21;;;;;;;3.33;2.70;;;3.30;99.90;;;;;;5047465;28;20488;-76
2022/12/01 07:18:49;;;;;;;4.27;2.53;;;3.30;99.90;;;;;;5030867;28;20442;-77
2022/12/01 07:21:16;;;;;;;3.67;2.50;;;3.30;99.90;;;;;;5032369;28;20438;-75
2022/12/01 07:23:43;;;;;;;5.72;3.38;;;3.30;99.90;;;;;;5034628;28;20437;-76
2022/12/01 07:26:12;;;;;;;2.55;2.15;;;3.30;99.90;;;;;;5041562;28;20460;-76
2022/12/01 07:28:42;;;;;;;3.50;2.37;;;3.30;99.90;;;;;;5044542;28;20638;-76
2022/12/01 07:31:12;;;;;;;3.47;2.20;;;3.30;99.90;;;;;;5039755;28;20425;-76
2022/12/01 07:33:39;;;;;;;3.35;1.95;;;3.30;99.90;;;;;;5040556;28;20483;-76
2022/12/01 07:36:06;;;;;;;3.22;2.47;;;3.30;99.90;;;;;;5052516;28;20427;-76
2022/12/01 07:38:34;;;;;;;4.95;3.03;;;3.30;99.90;;;;;;5031597;28;20829;-76
2022/12/01 07:41:09;;;;;;;2.85;2.47;;;3.20;99.90;;;;;;5039568;28;20439;-76
2022/12/01 07:43:37;;;;;;;3.38;1.92;;;3.30;99.90;;;;;;5048319;28;20482;-76
2022/12/01 07:46:09;;;;;;;4.13;2.83;;;3.30;99.90;;;;;;5050617;28;20498;-76
2022/12/01 07:48:38;;;;;;;4.30;2.85;;;3.30;99.90;;;;;;5047861;28;21015;-76
2022/12/01 07:51:21;;;;;;;5.50;3.30;;;3.20;99.90;;;;;;5039788;28;20925;-76
2022/12/01 07:54:03;;;;;;;5.57;2.25;;;3.20;99.90;;;;;;5040690;28;20493;-76
2022/12/01 07:56:30;;;;;;;4.25;2.50;;;3.20;99.90;;;;;;5045933;28;20446;-76
2022/12/01 07:58:58;;;;;;;4.63;2.13;;;3.30;99.90;;;;;;5059137;28;20437;-75
2022/12/01 08:01:38;;;;;;;5.07;2.97;;;3.20;99.90;;;;;;5044874;28;20433;-76
2022/12/01 08:04:22;;;;;;;4.15;2.60;;;3.30;99.90;;;;;;5048874;28;20850;-76
2022/12/01 08:06:51;;;;;;;3.33;2.57;;;3.30;99.90;;;;;;5045237;28;20447;-76
2022/12/01 08:09:21;;;;;;;4.85;2.25;;;3.30;99.90;;;;;;5048743;28;20429;-76
2022/12/01 08:11:49;;;;;;;4.38;2.70;;;3.30;99.90;;;;;;5042114;28;20437;-76
2022/12/01 08:14:16;;;;;;;2.27;2.17;;;3.30;99.90;;;;;;5070564;28;20429;-76
2022/12/01 08:16:42;;;;;;;4.85;2.97;;;3.40;99.90;;;;;;5040956;28;20917;-76
2022/12/01 08:19:09;;;;;;;3.58;2.33;;;3.40;99.90;;;;;;5042834;28;20437;-76
2022/12/01 08:21:36;;;;;;;7.13;2.50;;;3.40;99.90;;;;;;5047327;28;20921;-76
2022/12/01 08:24:03;;;;;;;3.35;2.38;;;3.40;99.90;;;;;;5046823;28;20524;-76
2022/12/01 08:26:33;;;;;;;4.03;2.33;;;3.40;99.90;;;;;;5039140;28;20454;-76
2022/12/01 08:28:59;;;;;;;4.25;2.50;;;3.40;99.90;;;;;;5044202;28;20425;-76
2022/12/01 08:31:34;;;;;;;2.37;2.17;;;3.40;99.90;;;;;;5046099;28;20429;-76
2022/12/01 08:34:04;;;;;;;3.13;2.53;;;3.50;99.90;;;;;;5041201;28;20439;-76
2022/12/01 08:36:33;;;;;;;4.68;2.60;;;3.40;99.90;;;;;;5054594;28;20469;-76
2022/12/01 08:38:59;;;;;;;3.83;2.17;;;3.40;99.90;;;;;;5046325;28;20848;-76
2022/12/01 08:41:30;;;;;;;4.05;2.22;;;3.40;99.90;;;;;;5043536;28;20454;-76
2022/12/01 08:43:58;;;;;;;2.25;1.75;;;3.40;99.90;;;;;;5046424;28;20444;-76
2022/12/01 08:46:28;;;;;;;3.85;2.05;;;3.50;99.90;;;;;;5049666;28;20472;-76
2022/12/01 08:48:56;;;;;;;3.22;1.67;;;3.50;99.90;;;;;;5036318;28;20477;-76
2022/12/01 08:51:26;;;;;;;2.63;1.83;;;3.60;99.90;;;;;;5042764;28;20788;-76
2022/12/01 08:53:55;;;;;;;3.35;3.05;;;3.60;99.90;;;;;;5051426;28;20959;-76
2022/12/01 08:56:29;;;;;;;3.58;1.98;;;3.70;99.90;;;;;;5046027;28;20456;-76
2022/12/01 08:58:57;;;;;;;2.50;1.88;;;3.70;99.90;;;;;;5042430;28;20969;-77
2022/12/01 09:01:27;;;;;;;3.17;2.00;;;3.70;99.90;;;;;;5040508;28;20930;-76
2022/12/01 09:04:35;;;;;;;2.90;2.60;;;3.80;99.90;;;;;;5049965;28;20514;-82
2022/12/01 09:07:01;;;;;;;3.72;2.22;;;4.00;99.90;;;;;;5046552;28;20466;-77
2022/12/01 09:09:34;;;;;;;3.53;2.13;;;4.20;99.90;;;;;;5042256;28;20431;-77
2022/12/01 09:12:02;;;;;;;2.20;2.03;;;4.50;99.90;;;;;;5042802;28;20510;-77
2022/12/01 09:14:28;;;;;;;3.60;2.80;;;4.70;99.90;;;;;;5033257;28;20991;-79
2022/12/01 09:16:58;;;;;;;4.10;2.28;;;4.90;99.90;;;;;;5041493;28;20473;-76
2022/12/01 09:19:27;;;;;;;3.83;2.25;;;5.10;99.90;;;;;;5044789;28;20496;-75
2022/12/01 09:21:54;;;;;;;4.03;2.25;;;5.30;99.90;;;;;;5040014;28;20448;-76
2022/12/01 09:24:21;;;;;;;3.10;2.07;;;5.40;99.90;;;;;;5046126;28;20441;-75
2022/12/01 09:26:48;;;;;;;3.15;2.35;;;5.40;99.90;;;;;;5086667;28;20441;-76
2022/12/01 09:29:15;;;;;;;4.45;2.70;;;5.30;99.90;;;;;;5049831;28;20427;-76
2022/12/01 09:31:44;;;;;;;2.58;1.98;;;5.10;99.90;;;;;;5049079;28;20429;-76
2022/12/01 09:34:18;;;;;;;4.93;2.40;;;5.20;99.90;;;;;;5054902;28;20443;-76
2022/12/01 09:36:46;;;;;;;4.78;2.25;;;5.10;99.90;;;;;;5041612;28;20925;-76
2022/12/01 09:39:16;;;;;;;2.00;1.50;;;5.10;99.90;;;;;;5044208;28;20483;-76
2022/12/01 09:41:46;;;;;;;3.42;2.75;;;5.10;99.90;;;;;;5035036;28;20951;-76
2022/12/01 09:44:25;;;;;;;3.22;2.05;;;5.20;99.90;;;;;;5046627;28;20436;-76
2022/12/01 09:47:06;;;;;;;3.22;2.42;;;5.40;99.90;;;;;;5040549;28;20498;-74
2022/12/01 09:49:41;;;;;;;4.47;2.35;;;5.50;99.90;;;;;;5052973;28;20454;-75
2022/12/01 09:52:12;;;;;;;2.85;2.55;;;5.40;99.90;;;;;;5049842;28;20432;-75
2022/12/01 09:54:38;;;;;;;2.42;2.15;;;5.50;99.90;;;;;;5047277;28;20466;-77
2022/12/01 09:57:10;;;;;;;3.05;2.22;;;5.50;99.90;;;;;;5038536;28;20435;-77
2022/12/01 09:59:40;;;;;;;2.53;2.15;;;5.70;99.90;;;;;;5046745;28;20425;-77
2022/12/01 10:02:34;;;;;;;5.47;2.17;;;5.70;99.90;;;;;;5040558;28;20430;-77
2022/12/01 10:05:05;;;;;;;2.45;2.05;;;5.70;99.90;;;;;;5043659;28;20509;-77
2022/12/01 10:07:44;;;;;;;1.95;1.75;;;5.50;99.90;;;;;;5038663;28;20492;-73
2022/12/01 10:10:32;;;;;;;3.08;2.10;;;5.60;99.90;;;;;;5039657;28;20516;-74
2022/12/01 10:12:59;;;;;;;2.25;2.05;;;5.60;99.90;;;;;;5045071;28;20457;-74
2022/12/01 10:15:51;;;;;;;3.58;2.28;;;5.40;99.90;;;;;;5042601;28;20426;-74
2022/12/01 10:18:35;;;;;;;3.65;2.30;;;5.30;99.90;;;;;;5043511;28;20457;-74
2022/12/01 10:21:23;;;;;;;3.55;2.53;;;5.20;99.90;;;;;;5038901;28;20430;-74
2022/12/01 10:24:19;;;;;;;3.10;2.00;;;5.20;99.90;;;;;;5038365;28;20437;-73
2022/12/01 10:27:15;;;;;;;2.90;2.08;;;5.40;99.90;;;;;;5044572;28;20862;-72
2022/12/01 10:29:49;;;;;;;2.40;2.20;;;5.40;99.90;;;;;;5043289;28;20837;-75
2022/12/01 10:32:20;;;;;;;2.17;2.00;;;5.80;99.90;;;;;;5048043;28;20436;-72
2022/12/01 10:34:50;;;;;;;3.65;1.95;;;6.00;99.90;;;;;;5042013;28;20445;-72
2022/12/01 10:37:23;;;;;;;2.38;1.98;;;6.00;99.90;;;;;;5049881;28;20432;-73
2022/12/01 10:39:53;;;;;;;2.90;2.28;;;6.20;99.90;;;;;;5034132;28;20438;-72
2022/12/01 10:42:35;;;;;;;3.97;2.00;;;6.30;99.90;;;;;;5043136;28;20429;-72
2022/12/01 10:45:05;;;;;;;2.65;2.22;;;6.50;99.90;;;;;;5035837;28;20494;-71
2022/12/01 10:47:36;;;;;;;2.50;2.03;;;6.50;99.90;;;;;;5047157;28;21232;-72
2022/12/01 10:50:03;;;;;;;2.33;1.75;;;6.50;99.90;;;;;;5038503;28;20457;-72
2022/12/01 10:52:35;;;;;;;4.00;1.73;;;6.70;99.90;;;;;;5032765;28;20433;-71
2022/12/01 10:55:25;;;;;;;4.75;2.33;;;6.80;99.90;;;;;;5042676;28;20429;-71
2022/12/01 10:57:54;;;;;;;5.35;2.58;;;6.90;99.90;;;;;;5047482;28;20938;-70
2022/12/01 11:00:23;;;;;;;4.50;1.83;;;7.10;99.90;;;;;;5037256;28;20438;-70
2022/12/01 11:03:22;;;;;;;1.92;1.55;;;7.10;99.90;;;;;;5030110;28;20490;-70
2022/12/01 11:05:53;;;;;;;3.93;2.10;;;7.40;99.90;;;;;;5031703;28;20435;-71
2022/12/01 11:08:23;;;;;;;5.20;2.38;;;7.40;99.90;;;;;;5044892;28;20432;-69
2022/12/01 11:10:52;;;;;;;4.20;2.50;;;7.30;99.90;;;;;;5030509;28;21211;-69
2022/12/01 11:13:29;;;;;;;2.60;2.03;;;7.30;99.90;;;;;;5037533;28;20465;-71
2022/12/01 11:16:02;;;;;;;2.87;2.10;;;7.10;99.90;;;;;;5045737;28;20437;-71
2022/12/01 11:18:33;;;;;;;1.55;1.45;;;6.90;99.90;;;;;;5038040;28;20437;-72
2022/12/01 11:21:13;;;;;;;2.95;2.05;;;6.60;99.90;;;;;;5041331;28;20985;-72
2022/12/01 11:23:51;;;;;;;3.85;2.10;;;6.50;99.90;;;;;;5031798;28;20445;-72
2022/12/01 11:26:28;;;;;;;4.22;2.55;;;6.40;99.90;;;;;;5042420;28;20467;-71
2022/12/01 11:29:01;;;;;;;3.30;1.98;;;6.20;99.90;;;;;;5035295;28;20973;-72
2022/12/01 11:31:43;;;;;;;3.35;2.25;;;6.10;99.90;;;;;;5038492;28;20452;-72
2022/12/01 11:34:28;;;;;;;2.50;1.70;;;6.10;99.90;;;;;;5041551;28;20468;-72
2022/12/01 11:36:58;;;;;;;3.63;1.97;;;6.00;99.90;;;;;;5039592;28;20457;-72
2022/12/01 11:39:31;;;;;;;3.80;2.15;;;6.00;99.90;;;;;;5042118;28;20469;-72
2022/12/01 11:42:01;;;;;;;2.45;1.45;;;5.90;99.90;;;;;;5057033;28;20480;-72
2022/12/01 11:44:30;;;;;;;2.93;2.03;;;5.80;99.90;;;;;;5040932;28;20429;-73
2022/12/01 11:47:25;;;;;;;3.17;2.40;;;5.70;99.90;;;;;;5051361;28;20433;-72
2022/12/01 11:49:57;;;;;;;4.13;2.10;;;5.50;99.90;;;;;;5048451;28;20433;-72
2022/12/01 11:52:49;;;;;;;3.60;2.03;;;5.50;99.90;;;;;;5049191;28;20425;-72
2022/12/01 11:55:16;;;;;;;2.10;1.90;;;5.40;99.90;;;;;;5028366;28;20426;-72
2022/12/01 11:57:46;;;;;;;4.53;2.45;;;5.40;99.90;;;;;;5056265;28;20431;-72
2022/12/01 12:00:19;;;;;;;5.10;2.83;;;5.40;99.90;;;;;;5045366;28;20493;-72
2022/12/01 12:02:58;;;;;;;3.35;2.75;;;5.40;99.90;;;;;;5042323;28;20519;-72
2022/12/01 12:05:25;;;;;;;2.65;1.98;;;5.50;99.90;;;;;;5037218;28;20915;-72
2022/12/01 12:08:27;;;;;;;3.33;2.75;;;5.60;99.90;;;;;;5044239;28;20518;-72
2022/12/01 12:11:24;;;;;;;3.03;2.73;;;5.70;99.90;;;;;;5025974;28;20484;-73
2022/12/01 12:14:30;;;;;;;4.05;3.08;;;5.90;99.90;;;;;;5027624;28;20470;-72
2022/12/01 12:17:13;;;;;;;4.80;2.63;;;6.10;99.90;;;;;;5045206;28;20475;-71
2022/12/01 12:19:46;;;;;;;4.55;2.80;;;6.20;99.90;;;;;;5038813;28;20429;-71
2022/12/01 12:22:33;;;;;;;5.18;2.50;;;6.30;99.90;;;;;;5033505;28;20445;-71
2022/12/01 12:25:35;;;;;;;2.53;2.30;;;6.40;99.90;;;;;;5043997;28;20823;-70
2022/12/01 12:28:18;;;;;;;3.38;3.08;;;6.40;99.90;;;;;;5047066;28;20519;-72
2022/12/01 12:31:00;;;;;;;5.30;2.30;;;6.50;99.90;;;;;;5033180;28;20487;-72
2022/12/01 12:33:45;;;;;;;4.93;2.60;;;6.40;99.90;;;;;;5040945;28;20522;-72
2022/12/01 12:36:41;;;;;;;3.60;2.25;;;6.40;99.90;;;;;;5044782;28;20432;-72
2022/12/01 12:39:23;;;;;;;4.43;2.60;;;6.50;99.90;;;;;;5042401;28;20444;-72
2022/12/01 12:41:55;;;;;;;4.05;2.17;;;6.60;99.90;;;;;;5037558;28;20492;-73
2022/12/01 12:44:38;;;;;;;3.47;2.83;;;6.70;99.90;;;;;;5043886;28;20429;-73
2022/12/01 12:47:25;;;;;;;3.88;2.92;;;6.60;99.90;;;;;;5040407;28;20529;-73
2022/12/01 12:50:12;;;;;;;4.43;2.58;;;6.70;99.90;;;;;;5040561;28;20435;-73
2022/12/01 12:52:44;;;;;;;6.03;1.90;;;6.40;99.90;;;;;;5049667;28;20508;-72
2022/12/01 12:55:11;;;;;;;2.97;2.17;;;6.20;99.90;;;;;;5039596;28;20486;-72
2022/12/01 12:57:44;;;;;;;5.35;3.28;;;6.00;99.90;;;;;;5039369;28;20854;-72
2022/12/01 13:00:18;;;;;;;4.00;2.08;;;5.90;99.90;;;;;;5043501;28;21114;-72
2022/12/01 13:03:21;;;;;;;3.70;2.65;;;5.90;99.90;;;;;;5043771;28;20981;-72
2022/12/01 13:06:00;;;;;;;3.47;2.37;;;5.90;99.90;;;;;;5050502;28;20498;-72
2022/12/01 13:08:41;;;;;;;3.42;2.53;;;5.90;99.90;;;;;;5046361;28;20435;-72
2022/12/01 13:11:36;;;;;;;6.75;2.47;;;5.90;99.90;;;;;;5046121;28;20813;-75
2022/12/01 13:14:29;;;;;;;5.47;2.80;;;5.90;99.90;;;;;;5047789;28;20431;-75
2022/12/01 13:17:13;;;;;;;9.70;3.40;;;5.90;99.90;;;;;;5037269;28;20918;-71
2022/12/01 13:19:42;;;;;;;3.85;3.05;;;5.90;99.90;;;;;;5072804;28;20967;-71
2022/12/01 13:22:12;;;;;;;8.52;3.42;;;5.90;99.90;;;;;;5044542;28;20433;-71
2022/12/01 13:24:39;;;;;;;6.05;3.33;;;5.90;99.90;;;;;;5035096;28;20428;-71
2022/12/01 13:27:18;;;;;;;6.10;2.60;;;5.90;99.90;;;;;;5033984;28;20520;-71
2022/12/01 13:29:50;;;;;;;3.08;2.50;;;5.90;99.90;;;;;;5036990;28;20484;-71
2022/12/01 13:32:39;;;;;;;4.25;2.83;;;5.90;99.90;;;;;;5042516;28;20425;-71
2022/12/01 13:35:22;;;;;;;5.50;3.28;;;5.90;99.90;;;;;;5032100;28;20519;-71
2022/12/01 13:37:50;;;;;;;5.75;2.80;;;6.00;99.90;;;;;;5054757;28;20462;-71
2022/12/01 13:40:27;;;;;;;4.68;2.88;;;6.00;99.90;;;;;;5049272;28;20780;-71